sensor_id;sensor_type;location;lat;lon;timestamp;temperature;humidity
70534;SHT31;58088;51.186;17.130;2024-02-23T00:00:55;11.65;73.62
70534;SHT31;58088;51.186;17.130;2024-02-23T00:03:21;11.64;73.70
70534;SHT31;58088;51.186;17.130;2024-02-23T00:05:47;11.62;73.71
70534;SHT31;58088;51.186;17.130;2024-02-23T00:08:13;11.59;73.83
70534;SHT31;58088;51.186;17.130;2024-02-23T00:10:39;11.59;73.92
70534;SHT31;58088;51.186;17.130;2024-02-23T00:13:05;11.59;73.93
70534;SHT31;58088;51.186;17.130;2024-02-23T00:15:32;11.60;73.98
70534;SHT31;58088;51.186;17.130;2024-02-23T00:17:58;11.60;73.99
70534;SHT31;58088;51.186;17.130;2024-02-23T00:20:24;11.64;73.98
70534;SHT31;58088;51.186;17.130;2024-02-23T00:22:50;11.65;73.91
70534;SHT31;58088;51.186;17.130;2024-02-23T00:25:16;11.68;73.98
70534;SHT31;58088;51.186;17.130;2024-02-23T00:27:42;11.71;73.97
70534;SHT31;58088;51.186;17.130;2024-02-23T00:30:09;11.75;73.94
70534;SHT31;58088;51.186;17.130;2024-02-23T00:32:36;11.78;73.90
70534;SHT31;58088;51.186;17.130;2024-02-23T00:35:03;11.82;73.80
70534;SHT31;58088;51.186;17.130;2024-02-23T00:37:29;11.85;73.80
70534;SHT31;58088;51.186;17.130;2024-02-23T00:40:03;11.87;73.81
70534;SHT31;58088;51.186;17.130;2024-02-23T00:42:31;11.89;73.80
70534;SHT31;58088;51.186;17.130;2024-02-23T00:44:57;11.91;73.80
70534;SHT31;58088;51.186;17.130;2024-02-23T00:47:23;11.90;73.80
70534;SHT31;58088;51.186;17.130;2024-02-23T00:49:49;11.92;73.86
70534;SHT31;58088;51.186;17.130;2024-02-23T00:52:15;11.93;73.82
70534;SHT31;58088;51.186;17.130;2024-02-23T00:54:42;11.93;73.85
70534;SHT31;58088;51.186;17.130;2024-02-23T00:57:08;11.95;73.90
70534;SHT31;58088;51.186;17.130;2024-02-23T00:59:34;11.95;73.93
70534;SHT31;58088;51.186;17.130;2024-02-23T01:02:00;11.95;73.92
70534;SHT31;58088;51.186;17.130;2024-02-23T01:04:26;11.97;73.92
70534;SHT31;58088;51.186;17.130;2024-02-23T01:06:53;11.98;73.90
70534;SHT31;58088;51.186;17.130;2024-02-23T01:09:19;11.99;73.93
70534;SHT31;58088;51.186;17.130;2024-02-23T01:11:46;11.99;73.97
70534;SHT31;58088;51.186;17.130;2024-02-23T01:14:14;12.00;73.93
70534;SHT31;58088;51.186;17.130;2024-02-23T01:16:40;12.01;73.92
70534;SHT31;58088;51.186;17.130;2024-02-23T01:19:06;12.03;73.89
70534;SHT31;58088;51.186;17.130;2024-02-23T01:21:32;12.08;73.86
70534;SHT31;58088;51.186;17.130;2024-02-23T01:23:59;12.11;73.79
70534;SHT31;58088;51.186;17.130;2024-02-23T01:26:26;12.15;73.68
70534;SHT31;58088;51.186;17.130;2024-02-23T01:28:53;12.18;73.58
70534;SHT31;58088;51.186;17.130;2024-02-23T01:31:19;12.20;73.49
70534;SHT31;58088;51.186;17.130;2024-02-23T01:33:45;12.19;73.40
70534;SHT31;58088;51.186;17.130;2024-02-23T01:36:12;12.19;73.39
70534;SHT31;58088;51.186;17.130;2024-02-23T01:38:39;12.18;73.36
70534;SHT31;58088;51.186;17.130;2024-02-23T01:41:05;12.17;73.37
70534;SHT31;58088;51.186;17.130;2024-02-23T01:43:32;12.16;73.29
70534;SHT31;58088;51.186;17.130;2024-02-23T01:45:58;12.16;73.20
70534;SHT31;58088;51.186;17.130;2024-02-23T01:48:24;12.14;73.12
70534;SHT31;58088;51.186;17.130;2024-02-23T01:50:52;12.15;73.01
70534;SHT31;58088;51.186;17.130;2024-02-23T01:53:19;12.15;72.89
70534;SHT31;58088;51.186;17.130;2024-02-23T01:55:46;12.16;72.76
70534;SHT31;58088;51.186;17.130;2024-02-23T01:58:14;12.15;72.56
70534;SHT31;58088;51.186;17.130;2024-02-23T02:00:40;12.15;72.55
70534;SHT31;58088;51.186;17.130;2024-02-23T02:03:07;12.16;72.49
70534;SHT31;58088;51.186;17.130;2024-02-23T02:05:35;12.16;72.47
70534;SHT31;58088;51.186;17.130;2024-02-23T02:08:03;12.19;72.41
70534;SHT31;58088;51.186;17.130;2024-02-23T02:10:31;12.20;72.38
70534;SHT31;58088;51.186;17.130;2024-02-23T02:13:04;12.22;72.25
70534;SHT31;58088;51.186;17.130;2024-02-23T02:15:31;12.22;72.10
70534;SHT31;58088;51.186;17.130;2024-02-23T02:17:57;12.25;72.00
70534;SHT31;58088;51.186;17.130;2024-02-23T02:20:24;12.26;71.91
70534;SHT31;58088;51.186;17.130;2024-02-23T02:22:54;12.27;71.77
70534;SHT31;58088;51.186;17.130;2024-02-23T02:25:20;12.27;71.63
70534;SHT31;58088;51.186;17.130;2024-02-23T02:27:46;12.28;71.52
70534;SHT31;58088;51.186;17.130;2024-02-23T02:30:13;12.29;71.38
70534;SHT31;58088;51.186;17.130;2024-02-23T02:32:39;12.30;71.24
70534;SHT31;58088;51.186;17.130;2024-02-23T02:35:05;12.29;71.14
70534;SHT31;58088;51.186;17.130;2024-02-23T02:37:33;12.28;71.05
70534;SHT31;58088;51.186;17.130;2024-02-23T02:40:00;12.27;70.91
70534;SHT31;58088;51.186;17.130;2024-02-23T02:42:26;12.26;70.86
70534;SHT31;58088;51.186;17.130;2024-02-23T02:44:54;12.26;70.74
70534;SHT31;58088;51.186;17.130;2024-02-23T02:47:20;12.27;70.69
70534;SHT31;58088;51.186;17.130;2024-02-23T02:49:46;12.29;70.58
70534;SHT31;58088;51.186;17.130;2024-02-23T02:52:14;12.27;70.49
70534;SHT31;58088;51.186;17.130;2024-02-23T02:54:40;12.28;70.41
70534;SHT31;58088;51.186;17.130;2024-02-23T02:57:06;12.29;70.41
70534;SHT31;58088;51.186;17.130;2024-02-23T02:59:36;12.27;70.40
70534;SHT31;58088;51.186;17.130;2024-02-23T03:02:13;12.26;70.38
70534;SHT31;58088;51.186;17.130;2024-02-23T03:04:58;12.26;70.30
70534;SHT31;58088;51.186;17.130;2024-02-23T03:07:24;12.25;70.24
70534;SHT31;58088;51.186;17.130;2024-02-23T03:09:51;12.26;70.20
70534;SHT31;58088;51.186;17.130;2024-02-23T03:12:17;12.27;70.21
70534;SHT31;58088;51.186;17.130;2024-02-23T03:14:44;12.28;70.19
70534;SHT31;58088;51.186;17.130;2024-02-23T03:17:10;12.30;70.15
70534;SHT31;58088;51.186;17.130;2024-02-23T03:19:36;12.29;70.09
70534;SHT31;58088;51.186;17.130;2024-02-23T03:22:04;12.31;70.03
70534;SHT31;58088;51.186;17.130;2024-02-23T03:24:30;12.32;69.92
70534;SHT31;58088;51.186;17.130;2024-02-23T03:26:57;12.35;69.85
70534;SHT31;58088;51.186;17.130;2024-02-23T03:29:23;12.36;69.85
70534;SHT31;58088;51.186;17.130;2024-02-23T03:31:52;12.37;69.88
70534;SHT31;58088;51.186;17.130;2024-02-23T03:34:19;12.36;69.80
70534;SHT31;58088;51.186;17.130;2024-02-23T03:36:45;12.38;69.79
70534;SHT31;58088;51.186;17.130;2024-02-23T03:39:11;12.39;69.79
70534;SHT31;58088;51.186;17.130;2024-02-23T03:41:37;12.41;69.79
70534;SHT31;58088;51.186;17.130;2024-02-23T03:44:03;12.43;69.71
70534;SHT31;58088;51.186;17.130;2024-02-23T03:46:30;12.43;69.65
70534;SHT31;58088;51.186;17.130;2024-02-23T03:48:56;12.43;69.70
70534;SHT31;58088;51.186;17.130;2024-02-23T03:51:23;12.43;69.80
70534;SHT31;58088;51.186;17.130;2024-02-23T03:53:49;12.42;69.97
70534;SHT31;58088;51.186;17.130;2024-02-23T03:56:16;12.40;69.97
70534;SHT31;58088;51.186;17.130;2024-02-23T03:58:42;12.39;70.08
70534;SHT31;58088;51.186;17.130;2024-02-23T04:01:08;12.37;70.11
70534;SHT31;58088;51.186;17.130;2024-02-23T04:03:35;12.38;70.20
70534;SHT31;58088;51.186;17.130;2024-02-23T04:06:01;12.39;70.18
70534;SHT31;58088;51.186;17.130;2024-02-23T04:08:27;12.38;70.19
70534;SHT31;58088;51.186;17.130;2024-02-23T04:10:54;12.37;70.11
70534;SHT31;58088;51.186;17.130;2024-02-23T04:13:20;12.37;70.10
70534;SHT31;58088;51.186;17.130;2024-02-23T04:15:47;12.37;70.06
70534;SHT31;58088;51.186;17.130;2024-02-23T04:18:13;12.36;70.10
70534;SHT31;58088;51.186;17.130;2024-02-23T04:20:39;12.35;70.04
70534;SHT31;58088;51.186;17.130;2024-02-23T04:23:05;12.33;70.06
70534;SHT31;58088;51.186;17.130;2024-02-23T04:25:31;12.30;70.09
70534;SHT31;58088;51.186;17.130;2024-02-23T04:27:58;12.29;70.04
70534;SHT31;58088;51.186;17.130;2024-02-23T04:30:24;12.29;70.02
70534;SHT31;58088;51.186;17.130;2024-02-23T04:32:50;12.29;70.02
70534;SHT31;58088;51.186;17.130;2024-02-23T04:35:16;12.28;70.00
70534;SHT31;58088;51.186;17.130;2024-02-23T04:37:43;12.31;69.93
70534;SHT31;58088;51.186;17.130;2024-02-23T04:40:10;12.32;69.87
70534;SHT31;58088;51.186;17.130;2024-02-23T04:42:37;12.30;69.84
70534;SHT31;58088;51.186;17.130;2024-02-23T04:45:04;12.30;69.80
70534;SHT31;58088;51.186;17.130;2024-02-23T04:47:31;12.31;69.80
70534;SHT31;58088;51.186;17.130;2024-02-23T04:49:58;12.32;69.72
70534;SHT31;58088;51.186;17.130;2024-02-23T04:52:25;12.31;69.60
70534;SHT31;58088;51.186;17.130;2024-02-23T04:54:51;12.32;69.60
70534;SHT31;58088;51.186;17.130;2024-02-23T04:57:17;12.32;69.60
70534;SHT31;58088;51.186;17.130;2024-02-23T04:59:43;12.33;69.54
70534;SHT31;58088;51.186;17.130;2024-02-23T05:02:19;12.35;69.50
70534;SHT31;58088;51.186;17.130;2024-02-23T05:05:02;12.34;69.41
70534;SHT31;58088;51.186;17.130;2024-02-23T05:07:30;12.36;69.34
70534;SHT31;58088;51.186;17.130;2024-02-23T05:09:57;12.36;69.32
70534;SHT31;58088;51.186;17.130;2024-02-23T05:12:24;12.37;69.23
70534;SHT31;58088;51.186;17.130;2024-02-23T05:14:50;12.38;69.20
70534;SHT31;58088;51.186;17.130;2024-02-23T05:17:16;12.39;69.20
70534;SHT31;58088;51.186;17.130;2024-02-23T05:19:43;12.39;69.20
70534;SHT31;58088;51.186;17.130;2024-02-23T05:22:09;12.40;69.14
70534;SHT31;58088;51.186;17.130;2024-02-23T05:24:35;12.40;69.10
70534;SHT31;58088;51.186;17.130;2024-02-23T05:27:01;12.41;69.12
70534;SHT31;58088;51.186;17.130;2024-02-23T05:29:28;12.41;69.10
70534;SHT31;58088;51.186;17.130;2024-02-23T05:31:55;12.41;69.07
70534;SHT31;58088;51.186;17.130;2024-02-23T05:34:21;12.40;69.06
70534;SHT31;58088;51.186;17.130;2024-02-23T05:36:47;12.40;69.03
70534;SHT31;58088;51.186;17.130;2024-02-23T05:39:14;12.43;69.09
70534;SHT31;58088;51.186;17.130;2024-02-23T05:41:43;12.42;69.01
70534;SHT31;58088;51.186;17.130;2024-02-23T05:44:10;12.42;69.02
70534;SHT31;58088;51.186;17.130;2024-02-23T05:46:36;12.41;69.00
70534;SHT31;58088;51.186;17.130;2024-02-23T05:49:02;12.39;68.99
70534;SHT31;58088;51.186;17.130;2024-02-23T05:51:32;12.38;68.98
70534;SHT31;58088;51.186;17.130;2024-02-23T05:53:58;12.38;68.94
70534;SHT31;58088;51.186;17.130;2024-02-23T05:56:24;12.40;68.90
70534;SHT31;58088;51.186;17.130;2024-02-23T05:58:51;12.42;68.90
70534;SHT31;58088;51.186;17.130;2024-02-23T06:01:18;12.41;68.91
70534;SHT31;58088;51.186;17.130;2024-02-23T06:03:44;12.38;68.98
70534;SHT31;58088;51.186;17.130;2024-02-23T06:06:11;12.38;68.96
70534;SHT31;58088;51.186;17.130;2024-02-23T06:08:37;12.39;68.92
70534;SHT31;58088;51.186;17.130;2024-02-23T06:11:04;12.41;68.96
70534;SHT31;58088;51.186;17.130;2024-02-23T06:13:30;12.40;68.99
70534;SHT31;58088;51.186;17.130;2024-02-23T06:15:57;12.43;68.94
70534;SHT31;58088;51.186;17.130;2024-02-23T06:18:23;12.42;68.87
70534;SHT31;58088;51.186;17.130;2024-02-23T06:20:49;12.40;68.89
70534;SHT31;58088;51.186;17.130;2024-02-23T06:23:16;12.38;68.90
70534;SHT31;58088;51.186;17.130;2024-02-23T06:25:42;12.39;68.92
70534;SHT31;58088;51.186;17.130;2024-02-23T06:28:09;12.38;68.90
70534;SHT31;58088;51.186;17.130;2024-02-23T06:30:36;12.37;68.88
70534;SHT31;58088;51.186;17.130;2024-02-23T06:33:02;12.38;68.88
70534;SHT31;58088;51.186;17.130;2024-02-23T06:35:30;12.39;68.85
70534;SHT31;58088;51.186;17.130;2024-02-23T06:37:57;12.40;68.82
70534;SHT31;58088;51.186;17.130;2024-02-23T06:40:23;12.42;68.77
70534;SHT31;58088;51.186;17.130;2024-02-23T06:42:50;12.43;68.70
70534;SHT31;58088;51.186;17.130;2024-02-23T06:45:16;12.40;68.81
70534;SHT31;58088;51.186;17.130;2024-02-23T06:47:44;12.42;68.82
70534;SHT31;58088;51.186;17.130;2024-02-23T06:50:10;12.42;68.80
70534;SHT31;58088;51.186;17.130;2024-02-23T06:52:36;12.44;68.80
70534;SHT31;58088;51.186;17.130;2024-02-23T06:55:03;12.46;68.70
70534;SHT31;58088;51.186;17.130;2024-02-23T06:57:30;12.46;68.66
70534;SHT31;58088;51.186;17.130;2024-02-23T06:59:57;12.47;68.70
70534;SHT31;58088;51.186;17.130;2024-02-23T07:02:23;12.49;68.57
70534;SHT31;58088;51.186;17.130;2024-02-23T07:04:49;12.47;68.50
70534;SHT31;58088;51.186;17.130;2024-02-23T07:07:15;12.48;68.47
70534;SHT31;58088;51.186;17.130;2024-02-23T07:09:41;12.49;68.44
70534;SHT31;58088;51.186;17.130;2024-02-23T07:12:08;12.51;68.33
70534;SHT31;58088;51.186;17.130;2024-02-23T07:14:37;12.54;68.26
70534;SHT31;58088;51.186;17.130;2024-02-23T07:17:03;12.55;68.20
70534;SHT31;58088;51.186;17.130;2024-02-23T07:19:29;12.54;68.03
70534;SHT31;58088;51.186;17.130;2024-02-23T07:21:55;12.56;67.92
70534;SHT31;58088;51.186;17.130;2024-02-23T07:24:22;12.57;67.81
70534;SHT31;58088;51.186;17.130;2024-02-23T07:26:48;12.57;67.62
70534;SHT31;58088;51.186;17.130;2024-02-23T07:29:14;12.58;67.54
70534;SHT31;58088;51.186;17.130;2024-02-23T07:31:40;12.61;67.38
70534;SHT31;58088;51.186;17.130;2024-02-23T07:34:06;12.61;67.23
70534;SHT31;58088;51.186;17.130;2024-02-23T07:36:34;12.64;67.20
70534;SHT31;58088;51.186;17.130;2024-02-23T07:39:00;12.66;67.12
70534;SHT31;58088;51.186;17.130;2024-02-23T07:41:27;12.68;67.02
70534;SHT31;58088;51.186;17.130;2024-02-23T07:43:53;12.68;67.05
70534;SHT31;58088;51.186;17.130;2024-02-23T07:46:19;12.68;66.87
70534;SHT31;58088;51.186;17.130;2024-02-23T07:48:48;12.68;66.74
70534;SHT31;58088;51.186;17.130;2024-02-23T07:51:14;12.70;66.63
70534;SHT31;58088;51.186;17.130;2024-02-23T07:53:40;12.74;66.66
70534;SHT31;58088;51.186;17.130;2024-02-23T07:56:09;12.73;66.60
70534;SHT31;58088;51.186;17.130;2024-02-23T07:58:36;12.74;66.48
70534;SHT31;58088;51.186;17.130;2024-02-23T08:01:02;12.74;66.39
70534;SHT31;58088;51.186;17.130;2024-02-23T08:03:28;12.76;66.22
70534;SHT31;58088;51.186;17.130;2024-02-23T08:05:55;12.79;66.06
70534;SHT31;58088;51.186;17.130;2024-02-23T08:08:21;12.83;65.87
70534;SHT31;58088;51.186;17.130;2024-02-23T08:10:49;12.87;65.75
70534;SHT31;58088;51.186;17.130;2024-02-23T08:13:15;12.93;65.77
70534;SHT31;58088;51.186;17.130;2024-02-23T08:15:43;12.99;65.73
70534;SHT31;58088;51.186;17.130;2024-02-23T08:18:09;13.02;65.54
70534;SHT31;58088;51.186;17.130;2024-02-23T08:20:36;13.06;65.54
70534;SHT31;58088;51.186;17.130;2024-02-23T08:23:03;13.09;65.25
70534;SHT31;58088;51.186;17.130;2024-02-23T08:25:29;13.11;64.93
70534;SHT31;58088;51.186;17.130;2024-02-23T08:27:56;13.16;64.73
70534;SHT31;58088;51.186;17.130;2024-02-23T08:30:22;13.24;64.71
70534;SHT31;58088;51.186;17.130;2024-02-23T08:32:48;13.30;64.71
70534;SHT31;58088;51.186;17.130;2024-02-23T08:35:15;13.35;64.48
70534;SHT31;58088;51.186;17.130;2024-02-23T08:37:41;13.40;64.41
70534;SHT31;58088;51.186;17.130;2024-02-23T08:40:08;13.45;64.38
70534;SHT31;58088;51.186;17.130;2024-02-23T08:42:35;13.46;64.15
70534;SHT31;58088;51.186;17.130;2024-02-23T08:45:01;13.44;63.57
70534;SHT31;58088;51.186;17.130;2024-02-23T08:47:27;13.41;62.62
70534;SHT31;58088;51.186;17.130;2024-02-23T08:49:58;13.40;61.82
70534;SHT31;58088;51.186;17.130;2024-02-23T08:52:24;13.40;61.33
70534;SHT31;58088;51.186;17.130;2024-02-23T08:54:51;13.42;61.09
70534;SHT31;58088;51.186;17.130;2024-02-23T08:57:18;13.41;60.48
70534;SHT31;58088;51.186;17.130;2024-02-23T08:59:45;13.44;60.47
70534;SHT31;58088;51.186;17.130;2024-02-23T09:02:13;13.50;60.90
70534;SHT31;58088;51.186;17.130;2024-02-23T09:04:39;13.52;60.78
70534;SHT31;58088;51.186;17.130;2024-02-23T09:07:05;13.52;60.20
70534;SHT31;58088;51.186;17.130;2024-02-23T09:09:32;13.57;60.20
70534;SHT31;58088;51.186;17.130;2024-02-23T09:11:58;13.59;59.56
70534;SHT31;58088;51.186;17.130;2024-02-23T09:14:25;13.56;59.00
70534;SHT31;58088;51.186;17.130;2024-02-23T09:16:51;13.55;58.69
70534;SHT31;58088;51.186;17.130;2024-02-23T09:19:18;13.56;58.44
70534;SHT31;58088;51.186;17.130;2024-02-23T09:21:46;13.58;58.44
70534;SHT31;58088;51.186;17.130;2024-02-23T09:24:13;13.62;58.57
70534;SHT31;58088;51.186;17.130;2024-02-23T09:26:40;13.67;58.33
70534;SHT31;58088;51.186;17.130;2024-02-23T09:29:06;13.66;56.67
70534;SHT31;58088;51.186;17.130;2024-02-23T09:31:32;13.66;56.02
70534;SHT31;58088;51.186;17.130;2024-02-23T09:33:59;13.68;55.65
70534;SHT31;58088;51.186;17.130;2024-02-23T09:36:25;13.67;54.52
70534;SHT31;58088;51.186;17.130;2024-02-23T09:38:51;13.69;54.08
70534;SHT31;58088;51.186;17.130;2024-02-23T09:41:19;13.74;53.84
70534;SHT31;58088;51.186;17.130;2024-02-23T09:43:49;13.69;52.22
70534;SHT31;58088;51.186;17.130;2024-02-23T09:46:19;13.69;52.15
70534;SHT31;58088;51.186;17.130;2024-02-23T09:48:45;13.68;51.90
70534;SHT31;58088;51.186;17.130;2024-02-23T09:51:14;13.70;52.04
70534;SHT31;58088;51.186;17.130;2024-02-23T09:53:41;13.75;52.23
70534;SHT31;58088;51.186;17.130;2024-02-23T09:56:08;13.76;52.16
70534;SHT31;58088;51.186;17.130;2024-02-23T09:58:36;13.77;51.96
70534;SHT31;58088;51.186;17.130;2024-02-23T10:01:04;13.79;52.20
70534;SHT31;58088;51.186;17.130;2024-02-23T10:03:31;13.75;51.67
70534;SHT31;58088;51.186;17.130;2024-02-23T10:05:57;13.70;51.50
70534;SHT31;58088;51.186;17.130;2024-02-23T10:08:25;13.66;51.17
70534;SHT31;58088;51.186;17.130;2024-02-23T10:10:51;13.60;50.97
70534;SHT31;58088;51.186;17.130;2024-02-23T10:13:18;13.60;51.46
70534;SHT31;58088;51.186;17.130;2024-02-23T10:15:52;13.59;51.37
70534;SHT31;58088;51.186;17.130;2024-02-23T10:18:19;13.57;51.04
70534;SHT31;58088;51.186;17.130;2024-02-23T10:20:48;13.60;51.10
70534;SHT31;58088;51.186;17.130;2024-02-23T10:23:16;13.60;50.96
70534;SHT31;58088;51.186;17.130;2024-02-23T10:25:45;13.63;51.05
70534;SHT31;58088;51.186;17.130;2024-02-23T10:28:12;13.68;50.88
70534;SHT31;58088;51.186;17.130;2024-02-23T10:30:38;13.73;51.40
70534;SHT31;58088;51.186;17.130;2024-02-23T10:33:04;13.79;50.86
70534;SHT31;58088;51.186;17.130;2024-02-23T10:35:32;13.75;50.69
70534;SHT31;58088;51.186;17.130;2024-02-23T10:38:04;13.73;51.02
70534;SHT31;58088;51.186;17.130;2024-02-23T10:40:35;13.76;50.95
70534;SHT31;58088;51.186;17.130;2024-02-23T10:43:12;13.78;50.71
70534;SHT31;58088;51.186;17.130;2024-02-23T10:45:49;13.81;50.74
70534;SHT31;58088;51.186;17.130;2024-02-23T10:48:15;13.78;50.16
70534;SHT31;58088;51.186;17.130;2024-02-23T10:50:43;13.76;49.98
70534;SHT31;58088;51.186;17.130;2024-02-23T10:53:09;13.74;49.72
70534;SHT31;58088;51.186;17.130;2024-02-23T10:55:37;13.73;49.74
70534;SHT31;58088;51.186;17.130;2024-02-23T10:58:04;13.77;49.74
70534;SHT31;58088;51.186;17.130;2024-02-23T11:00:37;13.76;49.50
70534;SHT31;58088;51.186;17.130;2024-02-23T11:03:04;13.77;49.61
70534;SHT31;58088;51.186;17.130;2024-02-23T11:05:33;13.80;49.40
70534;SHT31;58088;51.186;17.130;2024-02-23T11:07:59;13.82;49.65
70534;SHT31;58088;51.186;17.130;2024-02-23T11:10:25;13.85;49.94
70534;SHT31;58088;51.186;17.130;2024-02-23T11:13:07;13.89;49.54
70534;SHT31;58088;51.186;17.130;2024-02-23T11:15:34;13.91;49.56
70534;SHT31;58088;51.186;17.130;2024-02-23T11:18:21;13.94;49.81
70534;SHT31;58088;51.186;17.130;2024-02-23T11:20:55;13.95;49.73
70534;SHT31;58088;51.186;17.130;2024-02-23T11:23:25;13.98;49.67
70534;SHT31;58088;51.186;17.130;2024-02-23T11:25:59;14.02;49.50
70534;SHT31;58088;51.186;17.130;2024-02-23T11:28:32;14.09;49.38
70534;SHT31;58088;51.186;17.130;2024-02-23T11:30:58;14.23;50.07
70534;SHT31;58088;51.186;17.130;2024-02-23T11:33:28;14.39;49.72
70534;SHT31;58088;51.186;17.130;2024-02-23T11:36:09;14.46;49.04
70534;SHT31;58088;51.186;17.130;2024-02-23T11:38:36;14.54;49.13
70534;SHT31;58088;51.186;17.130;2024-02-23T11:41:04;14.60;48.87
70534;SHT31;58088;51.186;17.130;2024-02-23T11:43:30;14.66;48.25
70534;SHT31;58088;51.186;17.130;2024-02-23T11:46:00;14.65;48.38
70534;SHT31;58088;51.186;17.130;2024-02-23T11:48:26;14.73;48.36
70534;SHT31;58088;51.186;17.130;2024-02-23T11:50:52;14.82;47.98
70534;SHT31;58088;51.186;17.130;2024-02-23T11:53:19;14.84;48.18
70534;SHT31;58088;51.186;17.130;2024-02-23T11:55:47;14.84;48.10
70534;SHT31;58088;51.186;17.130;2024-02-23T11:58:15;14.80;48.08
70534;SHT31;58088;51.186;17.130;2024-02-23T12:00:41;14.82;47.95
70534;SHT31;58088;51.186;17.130;2024-02-23T12:03:07;14.88;46.93
70534;SHT31;58088;51.186;17.130;2024-02-23T12:05:33;14.91;47.16
70534;SHT31;58088;51.186;17.130;2024-02-23T12:07:59;14.91;47.13
70534;SHT31;58088;51.186;17.130;2024-02-23T12:10:26;14.90;47.65
70534;SHT31;58088;51.186;17.130;2024-02-23T12:12:53;14.87;48.39
70534;SHT31;58088;51.186;17.130;2024-02-23T12:15:21;14.82;48.17
70534;SHT31;58088;51.186;17.130;2024-02-23T12:17:47;14.73;48.08
70534;SHT31;58088;51.186;17.130;2024-02-23T12:20:15;14.61;48.34
70534;SHT31;58088;51.186;17.130;2024-02-23T12:22:42;14.57;48.44
70534;SHT31;58088;51.186;17.130;2024-02-23T12:25:08;14.51;48.02
70534;SHT31;58088;51.186;17.130;2024-02-23T12:27:34;14.48;47.92
70534;SHT31;58088;51.186;17.130;2024-02-23T12:30:01;14.47;48.35
70534;SHT31;58088;51.186;17.130;2024-02-23T12:32:27;14.46;48.43
70534;SHT31;58088;51.186;17.130;2024-02-23T12:34:53;14.43;48.31
70534;SHT31;58088;51.186;17.130;2024-02-23T12:37:21;14.42;48.30
70534;SHT31;58088;51.186;17.130;2024-02-23T12:39:50;14.38;48.33
70534;SHT31;58088;51.186;17.130;2024-02-23T12:42:17;14.34;48.45
70534;SHT31;58088;51.186;17.130;2024-02-23T12:44:44;14.32;49.02
70534;SHT31;58088;51.186;17.130;2024-02-23T12:47:10;14.27;49.50
70534;SHT31;58088;51.186;17.130;2024-02-23T12:49:37;14.24;49.92
70534;SHT31;58088;51.186;17.130;2024-02-23T12:52:03;14.19;49.64
70534;SHT31;58088;51.186;17.130;2024-02-23T12:54:29;14.12;50.14
70534;SHT31;58088;51.186;17.130;2024-02-23T12:56:56;14.10;50.89
70534;SHT31;58088;51.186;17.130;2024-02-23T12:59:22;14.09;51.88
70534;SHT31;58088;51.186;17.130;2024-02-23T13:01:48;14.13;53.42
70534;SHT31;58088;51.186;17.130;2024-02-23T13:04:15;14.13;53.87
70534;SHT31;58088;51.186;17.130;2024-02-23T13:06:41;14.08;53.80
70534;SHT31;58088;51.186;17.130;2024-02-23T13:09:07;13.97;53.18
70534;SHT31;58088;51.186;17.130;2024-02-23T13:11:34;13.86;53.41
70534;SHT31;58088;51.186;17.130;2024-02-23T13:14:04;13.76;53.41
70534;SHT31;58088;51.186;17.130;2024-02-23T13:16:30;13.68;53.76
70534;SHT31;58088;51.186;17.130;2024-02-23T13:18:56;13.59;54.08
70534;SHT31;58088;51.186;17.130;2024-02-23T13:21:23;13.53;54.29
70534;SHT31;58088;51.186;17.130;2024-02-23T13:23:49;13.47;53.73
70534;SHT31;58088;51.186;17.130;2024-02-23T13:26:16;13.38;53.07
70534;SHT31;58088;51.186;17.130;2024-02-23T13:28:42;13.39;52.84
70534;SHT31;58088;51.186;17.130;2024-02-23T13:31:09;13.40;52.52
70534;SHT31;58088;51.186;17.130;2024-02-23T13:33:36;13.37;52.71
70534;SHT31;58088;51.186;17.130;2024-02-23T13:36:03;13.33;53.35
70534;SHT31;58088;51.186;17.130;2024-02-23T13:38:30;13.30;53.44
70534;SHT31;58088;51.186;17.130;2024-02-23T13:40:57;13.29;53.40
70534;SHT31;58088;51.186;17.130;2024-02-23T13:43:23;13.25;53.87
70534;SHT31;58088;51.186;17.130;2024-02-23T13:45:50;13.19;54.46
70534;SHT31;58088;51.186;17.130;2024-02-23T13:48:18;13.09;55.12
70534;SHT31;58088;51.186;17.130;2024-02-23T13:50:46;13.05;55.66
70534;SHT31;58088;51.186;17.130;2024-02-23T13:53:13;12.98;56.09
70534;SHT31;58088;51.186;17.130;2024-02-23T13:55:40;12.91;56.71
70534;SHT31;58088;51.186;17.130;2024-02-23T13:58:10;12.86;57.19
70534;SHT31;58088;51.186;17.130;2024-02-23T14:00:37;12.85;57.60
70534;SHT31;58088;51.186;17.130;2024-02-23T14:03:04;12.83;57.63
70534;SHT31;58088;51.186;17.130;2024-02-23T14:05:30;12.83;57.68
70534;SHT31;58088;51.186;17.130;2024-02-23T14:07:56;12.78;57.48
70534;SHT31;58088;51.186;17.130;2024-02-23T14:10:22;12.74;57.44
70534;SHT31;58088;51.186;17.130;2024-02-23T14:12:48;12.69;57.33
70534;SHT31;58088;51.186;17.130;2024-02-23T14:15:16;12.67;57.37
70534;SHT31;58088;51.186;17.130;2024-02-23T14:17:42;12.68;57.60
70534;SHT31;58088;51.186;17.130;2024-02-23T14:20:08;12.74;57.46
70534;SHT31;58088;51.186;17.130;2024-02-23T14:22:35;12.72;56.89
70534;SHT31;58088;51.186;17.130;2024-02-23T14:25:01;12.69;56.58
70534;SHT31;58088;51.186;17.130;2024-02-23T14:27:28;12.66;56.12
70534;SHT31;58088;51.186;17.130;2024-02-23T14:29:54;12.64;55.81
70534;SHT31;58088;51.186;17.130;2024-02-23T14:32:20;12.63;55.66
70534;SHT31;58088;51.186;17.130;2024-02-23T14:34:47;12.61;55.68
70534;SHT31;58088;51.186;17.130;2024-02-23T14:37:13;12.60;55.51
70534;SHT31;58088;51.186;17.130;2024-02-23T14:39:40;12.53;55.40
70534;SHT31;58088;51.186;17.130;2024-02-23T14:42:06;12.51;55.36
70534;SHT31;58088;51.186;17.130;2024-02-23T14:44:35;12.49;55.48
70534;SHT31;58088;51.186;17.130;2024-02-23T14:47:02;12.46;55.23
70534;SHT31;58088;51.186;17.130;2024-02-23T14:49:31;12.41;55.21
70534;SHT31;58088;51.186;17.130;2024-02-23T14:51:58;12.38;55.37
70534;SHT31;58088;51.186;17.130;2024-02-23T14:54:24;12.36;55.50
70534;SHT31;58088;51.186;17.130;2024-02-23T14:56:50;12.36;55.64
70534;SHT31;58088;51.186;17.130;2024-02-23T14:59:16;12.33;55.58
70534;SHT31;58088;51.186;17.130;2024-02-23T15:01:42;12.31;55.72
70534;SHT31;58088;51.186;17.130;2024-02-23T15:04:08;12.29;55.81
70534;SHT31;58088;51.186;17.130;2024-02-23T15:06:35;12.30;56.06
70534;SHT31;58088;51.186;17.130;2024-02-23T15:09:04;12.28;55.89
70534;SHT31;58088;51.186;17.130;2024-02-23T15:11:30;12.26;55.74
70534;SHT31;58088;51.186;17.130;2024-02-23T15:13:57;12.26;55.74